Time;durP1;ratioP1;P1;durP2;ratioP2;P2;SDS_P1;SDS_P2;PMS_P1;PMS_P2;Temp;Humidity;BMP_temperature;BMP_pressure;BME280_temperature;BME280_humidity;BME280_pressure;Samples;Min_cycle;Max_cycle;Signal;HPM_P1;HPM_P2
2023/08/23 00:01:32;;;;;;;14.23;9.93;;;;;;;;;;5047257;28;20470;-77
2023/08/23 00:03:58;;;;;;;11.23;9.80;;;;;;;;;;5047912;28;20468;-77
2023/08/23 00:06:25;;;;;;;14.43;8.83;;;;;;;;;;5047080;28;20464;-77
2023/08/23 00:08:53;;;;;;;11.23;8.23;;;;;;;;;;5045807;28;20463;-77
2023/08/23 00:11:20;;;;;;;12.00;8.50;;;;;;;;;;5045891;28;20937;-77
2023/08/23 00:13:46;;;;;;;20.37;9.63;;;;;;;;;;5045779;28;20475;-77
2023/08/23 00:16:13;;;;;;;12.83;9.60;;;;;;;;;;5047283;28;20492;-77
2023/08/23 00:18:39;;;;;;;19.03;8.87;;;;;;;;;;5046522;28;20472;-77
2023/08/23 00:21:06;;;;;;;13.33;8.83;;;;;;;;;;5045442;28;21124;-78
2023/08/23 00:23:32;;;;;;;15.57;9.87;;;;;;;;;;5048403;28;20475;-77
2023/08/23 00:26:00;;;;;;;11.30;9.23;;;;;;;;;;5045727;28;20943;-77
2023/08/23 00:28:26;;;;;;;10.93;9.70;;;;;;;;;;5043130;28;20460;-77
2023/08/23 00:30:53;;;;;;;13.20;9.57;;;;;;;;;;5040995;28;20899;-77
2023/08/23 00:33:19;;;;;;;12.23;9.30;;;;;;;;;;5045866;28;21023;-77
2023/08/23 00:35:46;;;;;;;14.33;7.13;;;;;;;;;;5045975;28;20436;-77
2023/08/23 00:38:12;;;;;;;13.30;8.50;;;;;;;;;;5046502;28;20883;-77
2023/08/23 00:40:39;;;;;;;10.20;8.57;;;;;;;;;;5044574;28;20452;-77
2023/08/23 00:43:07;;;;;;;13.17;8.60;;;;;;;;;;5044465;28;20483;-77
2023/08/23 00:45:35;;;;;;;10.70;8.57;;;;;;;;;;5046688;28;20811;-77
2023/08/23 00:48:02;;;;;;;13.20;8.50;;;;;;;;;;5043273;28;20472;-77
2023/08/23 00:50:29;;;;;;;9.33;8.30;;;;;;;;;;5046880;28;20567;-78
2023/08/23 00:52:56;;;;;;;11.97;9.50;;;;;;;;;;5046005;28;20481;-78
2023/08/23 00:55:23;;;;;;;11.60;8.93;;;;;;;;;;5044200;28;20836;-78
2023/08/23 00:57:49;;;;;;;11.70;8.80;;;;;;;;;;5044248;28;20849;-78
2023/08/23 01:00:17;;;;;;;13.37;8.10;;;;;;;;;;5044782;28;20849;-78
2023/08/23 01:02:44;;;;;;;14.23;7.73;;;;;;;;;;5043457;28;20483;-78
2023/08/23 01:05:10;;;;;;;10.13;7.30;;;;;;;;;;5045374;28;20456;-78
2023/08/23 01:07:41;;;;;;;12.93;8.57;;;;;;;;;;5042431;28;20483;-78
2023/08/23 01:10:10;;;;;;;12.30;8.00;;;;;;;;;;5047890;28;20460;-78
2023/08/23 01:12:38;;;;;;;11.00;7.13;;;;;;;;;;5045310;28;20842;-78
2023/08/23 01:15:06;;;;;;;8.53;7.20;;;;;;;;;;5043904;28;20490;-78
2023/08/23 01:17:36;;;;;;;9.00;7.23;;;;;;;;;;5046623;28;20476;-78
2023/08/23 01:20:03;;;;;;;8.67;6.93;;;;;;;;;;5042229;28;20449;-78
2023/08/23 01:22:31;;;;;;;8.50;6.60;;;;;;;;;;5042726;28;20533;-78
2023/08/23 01:24:59;;;;;;;12.60;8.60;;;;;;;;;;5044075;28;20442;-77
2023/08/23 01:27:25;;;;;;;10.43;9.20;;;;;;;;;;5044704;28;20487;-78
2023/08/23 01:29:51;;;;;;;11.47;9.10;;;;;;;;;;5046445;28;20458;-78
2023/08/23 01:32:28;;;;;;;11.03;8.40;;;;;;;;;;5042944;28;20827;-78
2023/08/23 01:34:57;;;;;;;8.00;7.07;;;;;;;;;;5044440;28;20463;-78
2023/08/23 01:37:24;;;;;;;11.20;8.63;;;;;;;;;;5039853;28;20467;-78
2023/08/23 01:39:52;;;;;;;11.13;9.93;;;;;;;;;;5045531;28;20974;-78
2023/08/23 01:42:20;;;;;;;10.93;8.50;;;;;;;;;;5051489;28;20468;-78
2023/08/23 01:44:46;;;;;;;11.40;8.37;;;;;;;;;;5049592;28;20475;-78
2023/08/23 01:47:14;;;;;;;15.37;9.50;;;;;;;;;;5045604;28;20460;-78
2023/08/23 01:49:42;;;;;;;9.60;7.37;;;;;;;;;;5049042;28;20459;-78
2023/08/23 01:52:08;;;;;;;10.10;8.63;;;;;;;;;;5044285;28;20468;-78
2023/08/23 01:54:34;;;;;;;12.60;8.53;;;;;;;;;;5044791;28;20452;-78
2023/08/23 01:57:01;;;;;;;11.23;9.83;;;;;;;;;;5045269;28;20482;-78
2023/08/23 01:59:29;;;;;;;14.40;9.87;;;;;;;;;;5050127;28;20448;-78
2023/08/23 02:01:55;;;;;;;12.07;10.27;;;;;;;;;;5046745;28;20454;-78
2023/08/23 02:04:22;;;;;;;10.40;9.07;;;;;;;;;;5046341;28;20455;-77
2023/08/23 02:06:49;;;;;;;13.37;10.10;;;;;;;;;;5046275;28;20466;-78
2023/08/23 02:09:16;;;;;;;13.70;9.10;;;;;;;;;;5048333;28;20989;-78
2023/08/23 02:11:42;;;;;;;11.73;7.93;;;;;;;;;;5044550;28;20455;-78
2023/08/23 02:14:08;;;;;;;10.63;9.07;;;;;;;;;;5049219;28;20446;-77
2023/08/23 02:16:36;;;;;;;13.10;9.37;;;;;;;;;;5047664;28;20456;-78
2023/08/23 02:19:02;;;;;;;11.30;9.53;;;;;;;;;;5048693;28;20824;-78
2023/08/23 02:21:29;;;;;;;12.73;10.20;;;;;;;;;;5046294;28;20426;-78
2023/08/23 02:23:56;;;;;;;14.77;9.57;;;;;;;;;;5044620;28;20464;-78
2023/08/23 02:26:22;;;;;;;29.83;10.03;;;;;;;;;;5047450;28;20440;-77
2023/08/23 02:28:48;;;;;;;11.17;9.93;;;;;;;;;;5046885;28;20467;-77
2023/08/23 02:31:15;;;;;;;13.73;10.03;;;;;;;;;;5047024;28;20464;-77
2023/08/23 02:33:42;;;;;;;9.70;8.70;;;;;;;;;;5047448;28;20598;-78
2023/08/23 02:36:09;;;;;;;12.73;9.00;;;;;;;;;;5045887;28;20457;-77
2023/08/23 02:38:35;;;;;;;14.17;10.37;;;;;;;;;;5047442;28;20481;-77
2023/08/23 02:41:01;;;;;;;14.40;10.37;;;;;;;;;;5048704;28;20950;-77
2023/08/23 02:43:28;;;;;;;19.53;11.10;;;;;;;;;;5047189;28;20904;-77
2023/08/23 02:45:54;;;;;;;18.80;12.40;;;;;;;;;;5049125;28;20456;-78
2023/08/23 02:48:20;;;;;;;20.70;13.80;;;;;;;;;;5049416;28;20474;-78
2023/08/23 02:50:48;;;;;;;20.00;13.37;;;;;;;;;;5048337;28;20460;-78
2023/08/23 02:53:15;;;;;;;20.63;15.20;;;;;;;;;;5048988;28;20471;-77
2023/08/23 02:55:41;;;;;;;21.57;17.00;;;;;;;;;;5047167;28;20840;-78
2023/08/23 02:58:07;;;;;;;22.53;14.50;;;;;;;;;;5049378;28;20522;-77
2023/08/23 03:00:34;;;;;;;20.30;15.63;;;;;;;;;;5049626;28;20436;-77
2023/08/23 03:03:00;;;;;;;22.63;15.50;;;;;;;;;;5043511;28;20486;-77
2023/08/23 03:05:27;;;;;;;20.40;15.97;;;;;;;;;;5047012;28;20427;-77
2023/08/23 03:07:54;;;;;;;18.37;15.57;;;;;;;;;;5045364;28;20537;-76
2023/08/23 03:10:21;;;;;;;22.00;16.37;;;;;;;;;;5043051;28;20460;-77
2023/08/23 03:12:47;;;;;;;18.87;15.80;;;;;;;;;;5046108;28;20981;-77
2023/08/23 03:15:13;;;;;;;21.00;17.20;;;;;;;;;;5045435;28;20445;-77
2023/08/23 03:17:40;;;;;;;25.60;18.53;;;;;;;;;;5047005;28;20471;-77
2023/08/23 03:20:07;;;;;;;25.57;18.27;;;;;;;;;;5046014;28;20980;-77
2023/08/23 03:22:33;;;;;;;22.13;18.30;;;;;;;;;;5042693;28;20452;-77
2023/08/23 03:25:01;;;;;;;16.47;13.90;;;;;;;;;;5043702;28;20452;-77
2023/08/23 03:27:27;;;;;;;18.80;16.03;;;;;;;;;;5043549;28;20502;-77
2023/08/23 03:29:54;;;;;;;21.20;18.07;;;;;;;;;;5047249;28;20460;-77
2023/08/23 03:32:20;;;;;;;24.10;18.67;;;;;;;;;;5042501;28;20438;-77
2023/08/23 03:34:47;;;;;;;28.10;18.87;;;;;;;;;;5045904;28;20459;-77
2023/08/23 03:37:13;;;;;;;23.60;19.90;;;;;;;;;;5045728;28;20471;-77
2023/08/23 03:39:39;;;;;;;17.20;15.17;;;;;;;;;;5041844;28;20904;-77
2023/08/23 03:42:07;;;;;;;25.80;16.23;;;;;;;;;;5045266;28;20468;-78
2023/08/23 03:44:34;;;;;;;21.43;15.70;;;;;;;;;;5045743;28;20465;-77
2023/08/23 03:47:00;;;;;;;21.87;18.63;;;;;;;;;;5044020;28;20848;-78
2023/08/23 03:49:26;;;;;;;20.87;16.17;;;;;;;;;;5046692;28;20460;-78
2023/08/23 03:51:53;;;;;;;26.20;19.53;;;;;;;;;;5044448;28;20468;-78
2023/08/23 03:54:20;;;;;;;32.37;22.00;;;;;;;;;;5048357;28;20460;-78
2023/08/23 03:56:46;;;;;;;21.90;19.00;;;;;;;;;;5043594;28;20472;-78
2023/08/23 03:59:14;;;;;;;20.33;18.17;;;;;;;;;;5045940;28;20479;-78
2023/08/23 04:01:40;;;;;;;21.60;18.10;;;;;;;;;;5047555;28;20452;-78
2023/08/23 04:04:07;;;;;;;21.77;17.90;;;;;;;;;;5046381;28;20965;-78
2023/08/23 04:06:33;;;;;;;23.53;18.10;;;;;;;;;;5043034;28;20476;-79
2023/08/23 04:08:59;;;;;;;37.53;21.70;;;;;;;;;;5044914;28;20464;-77
2023/08/23 04:11:26;;;;;;;34.83;23.57;;;;;;;;;;5045044;28;20468;-78
2023/08/23 04:13:53;;;;;;;31.90;22.60;;;;;;;;;;5044592;28;20475;-78
2023/08/23 04:16:20;;;;;;;40.07;24.80;;;;;;;;;;5047253;28;20459;-78
2023/08/23 04:18:47;;;;;;;30.63;24.50;;;;;;;;;;5042649;28;20484;-78
2023/08/23 04:21:13;;;;;;;23.70;20.40;;;;;;;;;;5047809;28;20430;-79
2023/08/23 04:23:39;;;;;;;22.87;19.87;;;;;;;;;;5044434;28;20482;-78
2023/08/23 04:26:06;;;;;;;27.30;20.07;;;;;;;;;;5047539;28;20460;-78
2023/08/23 04:28:33;;;;;;;24.17;19.77;;;;;;;;;;5047713;28;20476;-78
2023/08/23 04:31:02;;;;;;;22.40;19.20;;;;;;;;;;5044429;28;20436;-78
2023/08/23 04:33:30;;;;;;;26.20;21.80;;;;;;;;;;5044279;28;20858;-78
2023/08/23 04:35:56;;;;;;;29.50;22.20;;;;;;;;;;5046523;28;20459;-78
2023/08/23 04:38:23;;;;;;;24.90;20.00;;;;;;;;;;5047807;28;20450;-78
2023/08/23 04:40:49;;;;;;;30.90;22.40;;;;;;;;;;5044161;28;20461;-78
2023/08/23 04:43:16;;;;;;;30.53;19.50;;;;;;;;;;5041728;28;20488;-78
2023/08/23 04:45:42;;;;;;;30.03;22.33;;;;;;;;;;5041033;28;20445;-78
2023/08/23 04:48:09;;;;;;;21.97;19.13;;;;;;;;;;5045311;28;20473;-78
2023/08/23 04:50:36;;;;;;;30.73;22.00;;;;;;;;;;5043869;28;20460;-78
2023/08/23 04:53:03;;;;;;;34.10;21.47;;;;;;;;;;5043899;28;20480;-78
2023/08/23 04:55:29;;;;;;;37.03;24.20;;;;;;;;;;5046618;28;20468;-78
2023/08/23 04:57:55;;;;;;;29.67;21.97;;;;;;;;;;5042778;28;21136;-78
2023/08/23 05:00:22;;;;;;;34.63;20.90;;;;;;;;;;5042232;28;20451;-78
2023/08/23 05:02:48;;;;;;;29.03;20.27;;;;;;;;;;5043871;28;20471;-78
2023/08/23 05:05:16;;;;;;;30.73;18.00;;;;;;;;;;5046636;28;20460;-78
2023/08/23 05:07:44;;;;;;;23.13;20.80;;;;;;;;;;5045028;28;20476;-78
2023/08/23 05:10:10;;;;;;;23.27;18.80;;;;;;;;;;5040949;28;20483;-78
2023/08/23 05:12:36;;;;;;;26.57;21.17;;;;;;;;;;5047596;28;20480;-78
2023/08/23 05:15:04;;;;;;;21.60;18.60;;;;;;;;;;5043409;28;20453;-78
2023/08/23 05:17:30;;;;;;;21.97;19.67;;;;;;;;;;5045008;28;20858;-79
2023/08/23 05:19:57;;;;;;;26.57;22.10;;;;;;;;;;5045862;28;20455;-78
2023/08/23 05:22:23;;;;;;;25.37;19.77;;;;;;;;;;5044685;28;20483;-79
2023/08/23 05:24:51;;;;;;;22.93;17.70;;;;;;;;;;5043952;28;20486;-78
2023/08/23 05:27:17;;;;;;;21.80;18.40;;;;;;;;;;5045770;28;20475;-78
2023/08/23 05:29:44;;;;;;;23.93;17.97;;;;;;;;;;5043672;28;20441;-78
2023/08/23 05:32:10;;;;;;;21.87;16.67;;;;;;;;;;5042045;28;20473;-78
2023/08/23 05:34:36;;;;;;;21.60;18.53;;;;;;;;;;5044428;28;20442;-78
2023/08/23 05:37:03;;;;;;;24.60;18.13;;;;;;;;;;5041549;28;20436;-79
2023/08/23 05:39:29;;;;;;;23.47;18.77;;;;;;;;;;5042673;28;20470;-79
2023/08/23 05:41:57;;;;;;;24.20;18.30;;;;;;;;;;5044355;28;20472;-78
2023/08/23 05:44:23;;;;;;;20.73;18.47;;;;;;;;;;5044184;28;20451;-79
2023/08/23 05:46:50;;;;;;;22.57;19.80;;;;;;;;;;5044232;28;20464;-78
2023/08/23 05:49:16;;;;;;;20.90;18.70;;;;;;;;;;5041833;28;20457;-78
2023/08/23 05:51:42;;;;;;;21.67;19.10;;;;;;;;;;5043289;28;20461;-79
2023/08/23 05:54:09;;;;;;;25.00;20.67;;;;;;;;;;5040904;28;20483;-78
2023/08/23 05:56:36;;;;;;;21.53;17.67;;;;;;;;;;5040584;28;20459;-79
2023/08/23 05:59:03;;;;;;;19.77;17.27;;;;;;;;;;5042183;28;20491;-78
2023/08/23 06:01:30;;;;;;;19.77;16.60;;;;;;;;;;5042136;28;20460;-78
2023/08/23 06:03:56;;;;;;;20.67;17.97;;;;;;;;;;5043255;28;20454;-78
2023/08/23 06:06:22;;;;;;;19.00;16.93;;;;;;;;;;5043434;28;20464;-78
2023/08/23 06:08:49;;;;;;;24.30;20.43;;;;;;;;;;5043073;28;21053;-78
2023/08/23 06:11:15;;;;;;;21.73;17.73;;;;;;;;;;5046827;28;20464;-79
2023/08/23 06:13:42;;;;;;;25.03;18.63;;;;;;;;;;5042430;28;20488;-78
2023/08/23 06:16:10;;;;;;;26.43;20.20;;;;;;;;;;5045774;28;20466;-78
2023/08/23 06:18:36;;;;;;;30.83;21.03;;;;;;;;;;5043618;28;20479;-79
2023/08/23 06:21:03;;;;;;;23.57;19.13;;;;;;;;;;5045888;28;20469;-78
2023/08/23 06:23:29;;;;;;;23.30;19.30;;;;;;;;;;5041632;28;20446;-78
2023/08/23 06:25:58;;;;;;;19.60;16.57;;;;;;;;;;5044604;28;20453;-78
2023/08/23 06:28:24;;;;;;;20.43;17.67;;;;;;;;;;5044846;28;20446;-78
2023/08/23 06:30:51;;;;;;;25.70;18.37;;;;;;;;;;5047084;28;20452;-78
2023/08/23 06:33:18;;;;;;;24.30;18.10;;;;;;;;;;5044303;28;20483;-78
2023/08/23 06:35:45;;;;;;;21.03;17.37;;;;;;;;;;5046287;28;20460;-78
2023/08/23 06:38:15;;;;;;;26.93;18.63;;;;;;;;;;5045950;28;20476;-78
2023/08/23 06:40:42;;;;;;;24.63;17.97;;;;;;;;;;5046356;28;20459;-78
2023/08/23 06:43:08;;;;;;;20.13;15.50;;;;;;;;;;5046051;28;20472;-78
2023/08/23 06:45:34;;;;;;;20.87;15.63;;;;;;;;;;5050263;28;20460;-78
2023/08/23 06:48:02;;;;;;;21.50;17.33;;;;;;;;;;5046101;28;21117;-78
2023/08/23 06:50:30;;;;;;;23.00;17.17;;;;;;;;;;5046142;28;20463;-78
2023/08/23 06:52:57;;;;;;;19.33;16.43;;;;;;;;;;5046494;28;20483;-78
2023/08/23 06:55:25;;;;;;;18.97;15.70;;;;;;;;;;5047117;28;20460;-78
2023/08/23 06:57:51;;;;;;;16.40;14.10;;;;;;;;;;5049793;28;20560;-78
2023/08/23 07:00:18;;;;;;;23.27;15.80;;;;;;;;;;5048647;28;20487;-77
2023/08/23 07:02:44;;;;;;;21.87;16.33;;;;;;;;;;5048851;28;20848;-78
2023/08/23 07:05:11;;;;;;;19.73;14.63;;;;;;;;;;5046475;28;20832;-78
2023/08/23 07:07:39;;;;;;;21.07;17.20;;;;;;;;;;5043621;28;21048;-78
2023/08/23 07:10:06;;;;;;;25.40;17.30;;;;;;;;;;5045297;28;20457;-78
2023/08/23 07:12:32;;;;;;;31.47;20.83;;;;;;;;;;5045069;28;20480;-78
2023/08/23 07:14:59;;;;;;;21.90;16.40;;;;;;;;;;5046906;28;20440;-78
2023/08/23 07:17:25;;;;;;;20.47;16.00;;;;;;;;;;5046775;28;20475;-78
2023/08/23 07:19:52;;;;;;;16.57;13.90;;;;;;;;;;5042881;28;20484;-78
2023/08/23 07:22:18;;;;;;;18.53;13.90;;;;;;;;;;5045565;28;20552;-78
2023/08/23 07:24:46;;;;;;;15.13;13.53;;;;;;;;;;5049577;28;20981;-78
2023/08/23 07:27:12;;;;;;;15.23;13.43;;;;;;;;;;5043266;28;20471;-78
2023/08/23 07:29:38;;;;;;;16.67;14.27;;;;;;;;;;5046086;28;20538;-78
2023/08/23 07:32:05;;;;;;;20.43;14.90;;;;;;;;;;5045337;28;20480;-78
2023/08/23 07:34:31;;;;;;;17.53;15.40;;;;;;;;;;5046992;28;21007;-78
2023/08/23 07:36:57;;;;;;;16.50;14.17;;;;;;;;;;5047978;28;20457;-78
2023/08/23 07:39:25;;;;;;;15.30;13.80;;;;;;;;;;5043776;28;20485;-78
2023/08/23 07:41:54;;;;;;;16.07;14.53;;;;;;;;;;5043897;28;20475;-78
2023/08/23 07:44:20;;;;;;;16.43;14.53;;;;;;;;;;5047289;28;20471;-78
2023/08/23 07:46:46;;;;;;;15.70;14.10;;;;;;;;;;5045683;28;20463;-78
2023/08/23 07:49:13;;;;;;;15.17;13.57;;;;;;;;;;5046050;28;20487;-78
2023/08/23 07:51:39;;;;;;;19.30;14.20;;;;;;;;;;5040900;28;20828;-79
2023/08/23 07:54:06;;;;;;;15.50;13.87;;;;;;;;;;5047451;28;20467;-78
2023/08/23 07:56:32;;;;;;;14.57;13.07;;;;;;;;;;5047476;28;20947;-78
2023/08/23 07:59:00;;;;;;;14.63;12.50;;;;;;;;;;5045420;28;20480;-78
2023/08/23 08:01:26;;;;;;;12.37;11.17;;;;;;;;;;5046789;28;20467;-79
2023/08/23 08:03:53;;;;;;;13.57;11.70;;;;;;;;;;5046138;28;20483;-78
2023/08/23 08:06:19;;;;;;;12.53;11.33;;;;;;;;;;5046558;28;20467;-79
2023/08/23 08:08:48;;;;;;;14.17;12.67;;;;;;;;;;5044078;28;20468;-79
2023/08/23 08:11:15;;;;;;;13.90;11.40;;;;;;;;;;5045893;28;20539;-79
2023/08/23 08:13:42;;;;;;;19.97;11.70;;;;;;;;;;5041437;28;21012;-79
2023/08/23 08:16:11;;;;;;;12.90;11.40;;;;;;;;;;5046241;28;20467;-79
2023/08/23 08:18:39;;;;;;;12.80;11.13;;;;;;;;;;5042857;28;20553;-79
2023/08/23 08:21:06;;;;;;;15.27;10.33;;;;;;;;;;5047332;28;20463;-79
2023/08/23 08:23:32;;;;;;;11.03;9.13;;;;;;;;;;5045547;28;20482;-79
2023/08/23 08:25:59;;;;;;;10.73;9.67;;;;;;;;;;5045997;28;20546;-79
2023/08/23 08:28:25;;;;;;;12.77;9.80;;;;;;;;;;5046038;28;20477;-79
2023/08/23 08:30:53;;;;;;;10.63;9.53;;;;;;;;;;5044977;28;20449;-79
2023/08/23 08:33:21;;;;;;;10.23;9.03;;;;;;;;;;5041608;28;20477;-79
2023/08/23 08:35:48;;;;;;;9.57;8.57;;;;;;;;;;5047048;28;20467;-79
2023/08/23 08:38:14;;;;;;;10.83;8.83;;;;;;;;;;5045945;28;20469;-79
2023/08/23 08:40:40;;;;;;;8.87;7.93;;;;;;;;;;5047501;28;20491;-79
2023/08/23 08:43:07;;;;;;;6.27;5.43;;;;;;;;;;5042826;28;21154;-79
2023/08/23 08:45:33;;;;;;;6.10;5.07;;;;;;;;;;5043754;28;20555;-79
2023/08/23 08:48:00;;;;;;;7.70;5.97;;;;;;;;;;5041141;28;20468;-79
2023/08/23 08:50:30;;;;;;;7.93;5.43;;;;;;;;;;5044150;28;20453;-79
2023/08/23 08:52:59;;;;;;;7.40;5.63;;;;;;;;;;5044377;28;20480;-79
2023/08/23 08:55:26;;;;;;;6.40;5.27;;;;;;;;;;5041448;28;20456;-79
2023/08/23 08:57:53;;;;;;;5.33;4.80;;;;;;;;;;5047158;28;20460;-79
2023/08/23 09:00:22;;;;;;;5.50;4.50;;;;;;;;;;5045787;28;20483;-79
2023/08/23 09:02:52;;;;;;;4.67;4.17;;;;;;;;;;5047041;28;20530;-79
2023/08/23 09:05:18;;;;;;;4.90;3.93;;;;;;;;;;5044172;28;20549;-79
2023/08/23 09:07:46;;;;;;;8.70;5.80;;;;;;;;;;5041594;28;20491;-79
2023/08/23 09:10:14;;;;;;;7.87;5.47;;;;;;;;;;5046387;28;20461;-79
2023/08/23 09:12:40;;;;;;;6.50;4.47;;;;;;;;;;5046192;28;20485;-79
2023/08/23 09:15:07;;;;;;;7.57;5.97;;;;;;;;;;5043773;28;20473;-79
2023/08/23 09:17:35;;;;;;;6.73;5.83;;;;;;;;;;5045540;28;20834;-80
2023/08/23 09:20:04;;;;;;;6.67;5.10;;;;;;;;;;5044867;28;20511;-79
2023/08/23 09:22:32;;;;;;;6.33;5.70;;;;;;;;;;5041334;28;20484;-80
2023/08/23 09:25:00;;;;;;;10.00;4.40;;;;;;;;;;5044548;28;20471;-79
2023/08/23 09:27:27;;;;;;;4.63;3.97;;;;;;;;;;5047553;28;20464;-80
2023/08/23 09:29:54;;;;;;;6.50;4.33;;;;;;;;;;5041300;28;20801;-79
2023/08/23 09:32:20;;;;;;;4.03;3.70;;;;;;;;;;5047996;28;20482;-79
2023/08/23 09:34:47;;;;;;;6.23;4.00;;;;;;;;;;5045083;28;20502;-79
2023/08/23 09:37:13;;;;;;;8.60;4.00;;;;;;;;;;5045446;28;20456;-79
2023/08/23 09:39:43;;;;;;;6.00;4.30;;;;;;;;;;5046277;28;20479;-79
2023/08/23 09:42:14;;;;;;;5.03;4.37;;;;;;;;;;5045538;28;20987;-79
2023/08/23 09:44:43;;;;;;;6.27;3.07;;;;;;;;;;5041890;28;20479;-79
2023/08/23 09:47:14;;;;;;;4.60;3.03;;;;;;;;;;5046886;28;20459;-79
2023/08/23 09:49:42;;;;;;;3.97;3.17;;;;;;;;;;5042271;28;20480;-79
2023/08/23 09:52:10;;;;;;;2.73;2.03;;;;;;;;;;5042097;28;20488;-78
2023/08/23 09:54:39;;;;;;;3.03;1.93;;;;;;;;;;5040858;28;20476;-79
2023/08/23 09:57:06;;;;;;;4.00;2.20;;;;;;;;;;5043183;28;20452;-79
2023/08/23 09:59:34;;;;;;;5.97;2.30;;;;;;;;;;5038250;28;20482;-79
2023/08/23 10:02:02;;;;;;;4.67;2.70;;;;;;;;;;5043781;28;20838;-79
2023/08/23 10:04:29;;;;;;;3.43;2.63;;;;;;;;;;5049441;28;20479;-79
2023/08/23 10:06:56;;;;;;;3.23;2.30;;;;;;;;;;5049280;28;20471;-79
2023/08/23 10:09:23;;;;;;;2.47;2.27;;;;;;;;;;5043257;28;21056;-78
2023/08/23 10:11:50;;;;;;;4.20;2.50;;;;;;;;;;5049475;28;21028;-78
2023/08/23 10:14:19;;;;;;;3.20;2.23;;;;;;;;;;5038871;28;20501;-78
2023/08/23 10:16:48;;;;;;;4.93;1.80;;;;;;;;;;5044395;28;20459;-78
2023/08/23 10:19:14;;;;;;;2.10;1.77;;;;;;;;;;5045133;28;20479;-78
2023/08/23 10:21:41;;;;;;;2.27;1.70;;;;;;;;;;5050411;28;20463;-78
2023/08/23 10:24:07;;;;;;;2.80;2.27;;;;;;;;;;5049630;28;20467;-78
2023/08/23 10:26:44;;;;;;;1.77;1.40;;;;;;;;;;5046264;28;20466;-78
2023/08/23 10:29:10;;;;;;;2.97;2.13;;;;;;;;;;5045731;28;20478;-78
2023/08/23 10:31:37;;;;;;;2.13;1.93;;;;;;;;;;5047533;28;20455;-78
2023/08/23 10:34:05;;;;;;;2.23;1.40;;;;;;;;;;5046256;28;20487;-78
2023/08/23 10:36:32;;;;;;;3.80;2.00;;;;;;;;;;5047280;28;20641;-78
2023/08/23 10:38:58;;;;;;;3.60;1.93;;;;;;;;;;5046513;28;20526;-78
2023/08/23 10:41:25;;;;;;;3.73;1.77;;;;;;;;;;5048937;28;20479;-78
2023/08/23 10:43:53;;;;;;;2.10;2.00;;;;;;;;;;5049207;28;20473;-78
2023/08/23 10:46:20;;;;;;;2.47;2.27;;;;;;;;;;5045052;28;20534;-78
2023/08/23 10:48:47;;;;;;;2.30;1.90;;;;;;;;;;5049808;28;20533;-79
2023/08/23 10:51:15;;;;;;;2.30;2.10;;;;;;;;;;5046722;28;21366;-78
2023/08/23 10:53:42;;;;;;;3.30;3.00;;;;;;;;;;5046836;28;20570;-78
2023/08/23 10:56:10;;;;;;;3.53;2.13;;;;;;;;;;5046781;28;20466;-78
2023/08/23 10:58:36;;;;;;;4.03;2.10;;;;;;;;;;5046891;28;20487;-78
2023/08/23 11:01:03;;;;;;;3.27;1.70;;;;;;;;;;5046390;28;20480;-78
2023/08/23 11:03:30;;;;;;;3.00;2.43;;;;;;;;;;5047799;28;20472;-78
2023/08/23 11:05:56;;;;;;;4.40;2.43;;;;;;;;;;5046382;28;21587;-78
2023/08/23 11:08:24;;;;;;;4.17;2.43;;;;;;;;;;5045891;28;20497;-79
2023/08/23 11:10:50;;;;;;;3.13;1.67;;;;;;;;;;5046167;28;20445;-78
2023/08/23 11:13:17;;;;;;;1.63;1.50;;;;;;;;;;5045858;28;20484;-79
2023/08/23 11:15:44;;;;;;;3.00;2.13;;;;;;;;;;5047445;28;20444;-78
2023/08/23 11:18:12;;;;;;;1.90;1.70;;;;;;;;;;5046686;28;20471;-79
2023/08/23 11:20:39;;;;;;;6.53;2.17;;;;;;;;;;5044809;28;20511;-78
2023/08/23 11:23:05;;;;;;;2.10;1.77;;;;;;;;;;5043316;28;20483;-79
2023/08/23 11:25:33;;;;;;;2.20;1.93;;;;;;;;;;5048246;28;20831;-78
2023/08/23 11:27:59;;;;;;;4.10;2.67;;;;;;;;;;5045364;28;20468;-78
2023/08/23 11:30:26;;;;;;;4.80;2.10;;;;;;;;;;5046658;28;20502;-78
2023/08/23 11:32:53;;;;;;;2.40;1.63;;;;;;;;;;5047891;28;20472;-79
2023/08/23 11:35:22;;;;;;;5.60;1.90;;;;;;;;;;5045711;28;20455;-78
2023/08/23 11:37:49;;;;;;;2.57;1.80;;;;;;;;;;5046862;28;20472;-78
2023/08/23 11:40:16;;;;;;;2.13;1.70;;;;;;;;;;5041767;28;20483;-78
2023/08/23 11:42:45;;;;;;;3.33;1.90;;;;;;;;;;5043620;28;21949;-78
2023/08/23 11:45:12;;;;;;;5.00;2.17;;;;;;;;;;5045868;28;20455;-78
2023/08/23 11:47:40;;;;;;;6.57;3.13;;;;;;;;;;5044203;28;20459;-78
2023/08/23 11:50:07;;;;;;;2.57;2.00;;;;;;;;;;5044032;28;20460;-78
2023/08/23 11:52:33;;;;;;;3.80;2.70;;;;;;;;;;5045541;28;20487;-78
2023/08/23 11:55:02;;;;;;;2.33;2.13;;;;;;;;;;5044712;28;20461;-78
2023/08/23 11:57:31;;;;;;;3.00;2.53;;;;;;;;;;5043811;28;20463;-80
2023/08/23 11:59:59;;;;;;;3.10;2.20;;;;;;;;;;5042714;28;20845;-78
2023/08/23 12:02:26;;;;;;;4.83;2.00;;;;;;;;;;5045810;28;20487;-79
2023/08/23 12:04:52;;;;;;;2.67;2.00;;;;;;;;;;5045385;28;21039;-78
2023/08/23 12:07:19;;;;;;;2.17;1.73;;;;;;;;;;5044148;28;20459;-79
2023/08/23 12:09:45;;;;;;;1.87;1.57;;;;;;;;;;5043002;28;20499;-78
2023/08/23 12:12:11;;;;;;;2.87;2.67;;;;;;;;;;5043204;28;20483;-78
2023/08/23 12:14:38;;;;;;;2.47;1.53;;;;;;;;;;5045104;28;20472;-78
2023/08/23 12:17:06;;;;;;;3.47;2.33;;;;;;;;;;5042270;28;20461;-78
2023/08/23 12:19:36;;;;;;;4.33;1.90;;;;;;;;;;5046685;28;20485;-78
2023/08/23 12:22:02;;;;;;;6.47;2.27;;;;;;;;;;5046170;28;20518;-78
2023/08/23 12:24:29;;;;;;;2.60;2.27;;;;;;;;;;5047216;28;20854;-78
2023/08/23 12:26:55;;;;;;;3.97;2.27;;;;;;;;;;5047256;28;20456;-78
2023/08/23 12:29:22;;;;;;;2.60;1.87;;;;;;;;;;5045461;28;21009;-78
2023/08/23 12:31:49;;;;;;;2.20;1.90;;;;;;;;;;5045095;28;20477;-78
2023/08/23 12:34:17;;;;;;;2.00;1.90;;;;;;;;;;5042915;28;21027;-78
2023/08/23 12:36:43;;;;;;;3.70;2.37;;;;;;;;;;5044967;28;20460;-78
2023/08/23 12:39:09;;;;;;;2.87;2.47;;;;;;;;;;5043624;28;20479;-78
2023/08/23 12:41:36;;;;;;;4.77;1.80;;;;;;;;;;5042329;28;20495;-78
2023/08/23 12:44:03;;;;;;;1.80;1.70;;;;;;;;;;5041080;28;20469;-78
2023/08/23 12:46:30;;;;;;;4.57;2.13;;;;;;;;;;5048080;28;20460;-78
2023/08/23 12:48:56;;;;;;;4.87;2.13;;;;;;;;;;5043270;28;20897;-78
2023/08/23 12:51:24;;;;;;;4.03;2.27;;;;;;;;;;5045858;28;20467;-78
2023/08/23 12:53:51;;;;;;;4.70;2.10;;;;;;;;;;5042772;28;20497;-77
2023/08/23 12:56:18;;;;;;;3.43;2.10;;;;;;;;;;5043181;28;20459;-78
2023/08/23 12:58:46;;;;;;;3.63;2.17;;;;;;;;;;5042609;28;21028;-78
2023/08/23 13:01:12;;;;;;;2.57;2.37;;;;;;;;;;5046545;28;20480;-77
2023/08/23 13:03:39;;;;;;;3.30;2.07;;;;;;;;;;5043958;28;20989;-77
2023/08/23 13:06:06;;;;;;;2.37;2.17;;;;;;;;;;5044267;28;20449;-78
2023/08/23 13:08:34;;;;;;;2.80;2.03;;;;;;;;;;5046735;28;20480;-78
2023/08/23 13:11:01;;;;;;;5.93;2.40;;;;;;;;;;5043830;28;20456;-78
2023/08/23 13:13:28;;;;;;;3.33;2.53;;;;;;;;;;5043847;28;20565;-78
2023/08/23 13:15:54;;;;;;;10.37;2.47;;;;;;;;;;5043565;28;20974;-78
2023/08/23 13:18:20;;;;;;;1.97;1.87;;;;;;;;;;5044095;28;20490;-78
2023/08/23 13:20:47;;;;;;;5.20;2.43;;;;;;;;;;5045495;28;20483;-78
2023/08/23 13:23:13;;;;;;;3.73;2.30;;;;;;;;;;5044244;28;20481;-78
2023/08/23 13:25:41;;;;;;;2.80;2.07;;;;;;;;;;5047638;28;20456;-78
2023/08/23 13:28:07;;;;;;;2.70;2.40;;;;;;;;;;5043149;28;20484;-77
2023/08/23 13:30:34;;;;;;;3.50;2.87;;;;;;;;;;5044411;28;20445;-78
2023/08/23 13:33:00;;;;;;;3.70;3.00;;;;;;;;;;5045980;28;20468;-78
2023/08/23 13:35:26;;;;;;;4.50;2.70;;;;;;;;;;5045591;28;20460;-78
2023/08/23 13:37:53;;;;;;;3.47;2.33;;;;;;;;;;5046613;28;20895;-78
2023/08/23 13:40:19;;;;;;;3.10;2.33;;;;;;;;;;5048096;28;20476;-77
2023/08/23 13:42:47;;;;;;;3.13;2.83;;;;;;;;;;5050257;28;20849;-78
2023/08/23 13:45:13;;;;;;;3.33;2.37;;;;;;;;;;5042944;28;20825;-77
2023/08/23 13:47:40;;;;;;;4.70;2.00;;;;;;;;;;5046118;28;20471;-79
2023/08/23 13:50:08;;;;;;;3.03;2.73;;;;;;;;;;5048998;28;21629;-78
2023/08/23 13:52:35;;;;;;;4.50;2.57;;;;;;;;;;5045911;28;20479;-78
2023/08/23 13:55:01;;;;;;;6.37;2.47;;;;;;;;;;5047543;28;20462;-78
2023/08/23 13:57:29;;;;;;;3.87;2.27;;;;;;;;;;5049275;28;20455;-79
2023/08/23 13:59:56;;;;;;;2.57;2.37;;;;;;;;;;5043914;28;20461;-78
2023/08/23 14:02:23;;;;;;;6.17;2.60;;;;;;;;;;5049086;28;20480;-79
2023/08/23 14:04:49;;;;;;;3.30;2.37;;;;;;;;;;5046066;28;20456;-78
2023/08/23 14:07:16;;;;;;;2.60;2.40;;;;;;;;;;5049440;28;20456;-78
2023/08/23 14:09:42;;;;;;;4.87;2.23;;;;;;;;;;5051664;28;20478;-78
2023/08/23 14:12:09;;;;;;;3.40;2.47;;;;;;;;;;5045723;28;20464;-78
2023/08/23 14:14:35;;;;;;;3.73;2.03;;;;;;;;;;5051290;28;21005;-78
2023/08/23 14:17:03;;;;;;;3.10;2.30;;;;;;;;;;5045937;28;20979;-78
2023/08/23 14:19:31;;;;;;;3.03;2.17;;;;;;;;;;5047171;28;20472;-78
2023/08/23 14:21:57;;;;;;;3.70;2.20;;;;;;;;;;5047321;28;20494;-78
2023/08/23 14:24:24;;;;;;;4.60;2.57;;;;;;;;;;5032550;28;20503;-78
2023/08/23 14:26:50;;;;;;;4.63;2.23;;;;;;;;;;5047315;28;20462;-78
2023/08/23 14:29:17;;;;;;;2.60;2.40;;;;;;;;;;5045928;28;20487;-78